sensor_id;sensor_type;location;lat;lon;timestamp;P1;durP1;ratioP1;P2;durP2;ratioP2
12721;SDS011;6425;50.316;8.114;2023-09-08T00:00:00;9.4;;;8.1;;
12721;SDS011;6425;50.316;8.114;2023-09-08T00:03:00;9.1;;;7.8;;
12721;SDS011;6425;50.316;8.114;2023-09-08T00:06:00;9.1;;;7.8;;
12721;SDS011;6425;50.316;8.114;2023-09-08T00:09:02;9;;;8.1;;
12721;SDS011;6425;50.316;8.114;2023-09-08T00:12:00;9;;;8.1;;
12721;SDS011;6425;50.316;8.114;2023-09-08T00:15:00;10.8;;;8.7;;
12721;SDS011;6425;50.316;8.114;2023-09-08T00:18:00;12.3;;;8.4;;
12721;SDS011;6425;50.316;8.114;2023-09-08T00:21:00;12.3;;;8.4;;
12721;SDS011;6425;50.316;8.114;2023-09-08T00:24:00;11.9;;;9;;
12721;SDS011;6425;50.316;8.114;2023-09-08T00:27:00;11.9;;;9;;
12721;SDS011;6425;50.316;8.114;2023-09-08T00:30:00;9.4;;;8.5;;
12721;SDS011;6425;50.316;8.114;2023-09-08T00:33:00;9.4;;;8.5;;
12721;SDS011;6425;50.316;8.114;2023-09-08T00:36:00;9.4;;;8.5;;
12721;SDS011;6425;50.316;8.114;2023-09-08T00:39:00;9.9;;;8.1;;
12721;SDS011;6425;50.316;8.114;2023-09-08T00:42:00;9.9;;;8.1;;
12721;SDS011;6425;50.316;8.114;2023-09-08T00:45:00;11.8;;;8.8;;
12721;SDS011;6425;50.316;8.114;2023-09-08T00:48:00;11.1;;;8.5;;
12721;SDS011;6425;50.316;8.114;2023-09-08T00:51:00;11.1;;;8.5;;
12721;SDS011;6425;50.316;8.114;2023-09-08T00:54:00;11.3;;;9.3;;
12721;SDS011;6425;50.316;8.114;2023-09-08T00:57:01;11.3;;;9.3;;
12721;SDS011;6425;50.316;8.114;2023-09-08T01:00:00;9.9;;;8.9;;
12721;SDS011;6425;50.316;8.114;2023-09-08T01:03:00;9.4;;;8.5;;
12721;SDS011;6425;50.316;8.114;2023-09-08T01:06:00;9.4;;;8.5;;
12721;SDS011;6425;50.316;8.114;2023-09-08T01:09:00;10.1;;;9.1;;
12721;SDS011;6425;50.316;8.114;2023-09-08T01:12:01;10.1;;;9.1;;
12721;SDS011;6425;50.316;8.114;2023-09-08T01:15:00;9.8;;;8.8;;
12721;SDS011;6425;50.316;8.114;2023-09-08T01:18:00;11.7;;;9.6;;
12721;SDS011;6425;50.316;8.114;2023-09-08T01:21:03;11.7;;;9.6;;
12721;SDS011;6425;50.316;8.114;2023-09-08T01:24:05;10.4;;;9.3;;
12721;SDS011;6425;50.316;8.114;2023-09-08T01:27:00;10.4;;;9.3;;
12721;SDS011;6425;50.316;8.114;2023-09-08T01:30:00;11.1;;;10;;
12721;SDS011;6425;50.316;8.114;2023-09-08T01:33:00;10.8;;;9.2;;
12721;SDS011;6425;50.316;8.114;2023-09-08T01:36:00;10.8;;;9.2;;
12721;SDS011;6425;50.316;8.114;2023-09-08T01:39:00;12.7;;;9.4;;
12721;SDS011;6425;50.316;8.114;2023-09-08T01:42:00;12.7;;;9.4;;
12721;SDS011;6425;50.316;8.114;2023-09-08T01:45:00;10.4;;;9.4;;
12721;SDS011;6425;50.316;8.114;2023-09-08T01:48:00;11.9;;;9.1;;
12721;SDS011;6425;50.316;8.114;2023-09-08T01:51:00;11.9;;;9.1;;
12721;SDS011;6425;50.316;8.114;2023-09-08T01:54:00;11.1;;;9.2;;
12721;SDS011;6425;50.316;8.114;2023-09-08T01:57:00;11.1;;;9.2;;
12721;SDS011;6425;50.316;8.114;2023-09-08T02:00:00;13.2;;;9.4;;
12721;SDS011;6425;50.316;8.114;2023-09-08T02:03:00;12.3;;;10;;
12721;SDS011;6425;50.316;8.114;2023-09-08T02:06:00;12.3;;;10;;
12721;SDS011;6425;50.316;8.114;2023-09-08T02:09:00;13.7;;;10.2;;
12721;SDS011;6425;50.316;8.114;2023-09-08T02:12:00;13.7;;;10.2;;
12721;SDS011;6425;50.316;8.114;2023-09-08T02:15:00;12.5;;;9.6;;
12721;SDS011;6425;50.316;8.114;2023-09-08T02:18:00;11.5;;;10.3;;
12721;SDS011;6425;50.316;8.114;2023-09-08T02:21:00;11.5;;;10.3;;
12721;SDS011;6425;50.316;8.114;2023-09-08T02:24:00;10.3;;;9.4;;
12721;SDS011;6425;50.316;8.114;2023-09-08T02:27:00;10.3;;;9.4;;
12721;SDS011;6425;50.316;8.114;2023-09-08T02:30:00;11.8;;;10.2;;
12721;SDS011;6425;50.316;8.114;2023-09-08T02:33:00;12.1;;;8.9;;
12721;SDS011;6425;50.316;8.114;2023-09-08T02:36:01;12.1;;;8.9;;
12721;SDS011;6425;50.316;8.114;2023-09-08T02:39:00;10.1;;;9.1;;
12721;SDS011;6425;50.316;8.114;2023-09-08T02:42:00;10.1;;;9.1;;
12721;SDS011;6425;50.316;8.114;2023-09-08T02:45:00;9.8;;;8.8;;
12721;SDS011;6425;50.316;8.114;2023-09-08T02:48:00;9.1;;;8.1;;
12721;SDS011;6425;50.316;8.114;2023-09-08T02:51:00;9.1;;;8.1;;
12721;SDS011;6425;50.316;8.114;2023-09-08T02:54:00;8.3;;;7.2;;
12721;SDS011;6425;50.316;8.114;2023-09-08T02:57:00;8.3;;;7.2;;
12721;SDS011;6425;50.316;8.114;2023-09-08T03:00:00;8.6;;;6.9;;
12721;SDS011;6425;50.316;8.114;2023-09-08T03:03:00;7.2;;;6.4;;
12721;SDS011;6425;50.316;8.114;2023-09-08T03:06:00;7.2;;;6.4;;
12721;SDS011;6425;50.316;8.114;2023-09-08T03:09:00;7.2;;;6.5;;
12721;SDS011;6425;50.316;8.114;2023-09-08T03:12:00;7.2;;;6.5;;
12721;SDS011;6425;50.316;8.114;2023-09-08T03:15:00;7.7;;;6.2;;
12721;SDS011;6425;50.316;8.114;2023-09-08T03:18:00;7.4;;;6.6;;
12721;SDS011;6425;50.316;8.114;2023-09-08T03:21:00;7.4;;;6.6;;
12721;SDS011;6425;50.316;8.114;2023-09-08T03:24:00;8.3;;;6.5;;
12721;SDS011;6425;50.316;8.114;2023-09-08T03:27:00;8.1;;;6.3;;
12721;SDS011;6425;50.316;8.114;2023-09-08T03:30:00;7.9;;;6.2;;
12721;SDS011;6425;50.316;8.114;2023-09-08T03:33:00;8.1;;;6.8;;
12721;SDS011;6425;50.316;8.114;2023-09-08T03:36:00;8.1;;;6.8;;
12721;SDS011;6425;50.316;8.114;2023-09-08T03:39:00;8.4;;;6.7;;
12721;SDS011;6425;50.316;8.114;2023-09-08T03:42:00;7.5;;;6.6;;
12721;SDS011;6425;50.316;8.114;2023-09-08T03:45:00;7.5;;;6.6;;
12721;SDS011;6425;50.316;8.114;2023-09-08T03:48:00;8.4;;;7.2;;
12721;SDS011;6425;50.316;8.114;2023-09-08T03:51:00;8.4;;;7.2;;
12721;SDS011;6425;50.316;8.114;2023-09-08T03:54:00;7.6;;;6.7;;
12721;SDS011;6425;50.316;8.114;2023-09-08T03:57:00;8.4;;;7.4;;
12721;SDS011;6425;50.316;8.114;2023-09-08T04:00:00;8.4;;;7.4;;
12721;SDS011;6425;50.316;8.114;2023-09-08T04:03:00;8.6;;;7.7;;
12721;SDS011;6425;50.316;8.114;2023-09-08T04:06:00;8.6;;;7.7;;
12721;SDS011;6425;50.316;8.114;2023-09-08T04:09:00;9.3;;;8.3;;
12721;SDS011;6425;50.316;8.114;2023-09-08T04:12:00;8.6;;;7.5;;
12721;SDS011;6425;50.316;8.114;2023-09-08T04:15:00;8.6;;;7.5;;
12721;SDS011;6425;50.316;8.114;2023-09-08T04:18:00;9.1;;;7.3;;
12721;SDS011;6425;50.316;8.114;2023-09-08T04:21:00;9.1;;;7.3;;
12721;SDS011;6425;50.316;8.114;2023-09-08T04:24:00;10.3;;;7.8;;
12721;SDS011;6425;50.316;8.114;2023-09-08T04:27:00;9.5;;;8.2;;
12721;SDS011;6425;50.316;8.114;2023-09-08T04:30:00;9.5;;;8.2;;
12721;SDS011;6425;50.316;8.114;2023-09-08T04:33:00;8.4;;;6.9;;
12721;SDS011;6425;50.316;8.114;2023-09-08T04:36:00;8.4;;;6.9;;
12721;SDS011;6425;50.316;8.114;2023-09-08T04:39:00;9.2;;;7.6;;
12721;SDS011;6425;50.316;8.114;2023-09-08T04:42:00;13.4;;;7.7;;
12721;SDS011;6425;50.316;8.114;2023-09-08T04:45:00;13.4;;;7.7;;
12721;SDS011;6425;50.316;8.114;2023-09-08T04:48:00;10;;;7.5;;
12721;SDS011;6425;50.316;8.114;2023-09-08T04:51:00;10;;;7.5;;
12721;SDS011;6425;50.316;8.114;2023-09-08T04:54:00;10.9;;;8.4;;
12721;SDS011;6425;50.316;8.114;2023-09-08T04:57:00;10.2;;;7.8;;
12721;SDS011;6425;50.316;8.114;2023-09-08T05:00:00;10.2;;;7.8;;
12721;SDS011;6425;50.316;8.114;2023-09-08T05:03:00;10.1;;;7.9;;
12721;SDS011;6425;50.316;8.114;2023-09-08T05:06:00;10.1;;;7.9;;
12721;SDS011;6425;50.316;8.114;2023-09-08T05:09:00;11.1;;;7.7;;
12721;SDS011;6425;50.316;8.114;2023-09-08T05:12:00;9.6;;;7.8;;
12721;SDS011;6425;50.316;8.114;2023-09-08T05:15:00;9.6;;;7.8;;
12721;SDS011;6425;50.316;8.114;2023-09-08T05:18:00;10.2;;;8.9;;
12721;SDS011;6425;50.316;8.114;2023-09-08T05:21:00;10.2;;;8.9;;
12721;SDS011;6425;50.316;8.114;2023-09-08T05:24:00;10.3;;;8.4;;
12721;SDS011;6425;50.316;8.114;2023-09-08T05:27:00;11.5;;;8.9;;
12721;SDS011;6425;50.316;8.114;2023-09-08T05:30:00;11.5;;;8.9;;
12721;SDS011;6425;50.316;8.114;2023-09-08T05:33:00;13.3;;;8;;
12721;SDS011;6425;50.316;8.114;2023-09-08T05:36:00;13.3;;;8;;
12721;SDS011;6425;50.316;8.114;2023-09-08T05:39:00;11.8;;;7.9;;
12721;SDS011;6425;50.316;8.114;2023-09-08T05:42:00;9.3;;;7.6;;
12721;SDS011;6425;50.316;8.114;2023-09-08T05:45:00;9.3;;;7.6;;
12721;SDS011;6425;50.316;8.114;2023-09-08T05:48:01;10;;;8.2;;
12721;SDS011;6425;50.316;8.114;2023-09-08T05:51:00;10;;;8.2;;
12721;SDS011;6425;50.316;8.114;2023-09-08T05:54:00;8.9;;;7.6;;
12721;SDS011;6425;50.316;8.114;2023-09-08T05:57:00;8.7;;;7.5;;
12721;SDS011;6425;50.316;8.114;2023-09-08T06:00:00;8.7;;;7.5;;
12721;SDS011;6425;50.316;8.114;2023-09-08T06:03:00;10.1;;;7.2;;
12721;SDS011;6425;50.316;8.114;2023-09-08T06:06:00;10.1;;;7.2;;
12721;SDS011;6425;50.316;8.114;2023-09-08T06:09:00;9.2;;;7.4;;
12721;SDS011;6425;50.316;8.114;2023-09-08T06:12:00;8.7;;;7.7;;
12721;SDS011;6425;50.316;8.114;2023-09-08T06:15:00;8.7;;;7.7;;
12721;SDS011;6425;50.316;8.114;2023-09-08T06:18:00;8.5;;;6.9;;
12721;SDS011;6425;50.316;8.114;2023-09-08T06:21:00;8.5;;;6.9;;
12721;SDS011;6425;50.316;8.114;2023-09-08T06:24:00;7.5;;;6.3;;
12721;SDS011;6425;50.316;8.114;2023-09-08T06:27:00;8.1;;;6.7;;
12721;SDS011;6425;50.316;8.114;2023-09-08T06:30:00;8.1;;;6.7;;
12721;SDS011;6425;50.316;8.114;2023-09-08T06:33:00;9.3;;;6.3;;
12721;SDS011;6425;50.316;8.114;2023-09-08T06:36:00;9.3;;;6.3;;
12721;SDS011;6425;50.316;8.114;2023-09-08T06:39:00;8.6;;;6.3;;
12721;SDS011;6425;50.316;8.114;2023-09-08T06:42:00;6.8;;;6;;
12721;SDS011;6425;50.316;8.114;2023-09-08T06:45:00;6.8;;;6;;
12721;SDS011;6425;50.316;8.114;2023-09-08T06:48:00;7.6;;;5.9;;
12721;SDS011;6425;50.316;8.114;2023-09-08T06:51:00;7.6;;;5.9;;
12721;SDS011;6425;50.316;8.114;2023-09-08T06:54:00;7.5;;;6.2;;
12721;SDS011;6425;50.316;8.114;2023-09-08T06:57:00;7.1;;;5.6;;
12721;SDS011;6425;50.316;8.114;2023-09-08T07:00:00;7.1;;;5.6;;
12721;SDS011;6425;50.316;8.114;2023-09-08T07:03:00;9.5;;;6.1;;
12721;SDS011;6425;50.316;8.114;2023-09-08T07:06:00;9.5;;;6.1;;
12721;SDS011;6425;50.316;8.114;2023-09-08T07:09:00;6.5;;;5.6;;
12721;SDS011;6425;50.316;8.114;2023-09-08T07:12:00;7;;;6.2;;
12721;SDS011;6425;50.316;8.114;2023-09-08T07:15:00;7;;;6.2;;
12721;SDS011;6425;50.316;8.114;2023-09-08T07:18:00;6.6;;;5.9;;
12721;SDS011;6425;50.316;8.114;2023-09-08T07:21:00;6.6;;;5.9;;
12721;SDS011;6425;50.316;8.114;2023-09-08T07:24:00;6.2;;;5.5;;
12721;SDS011;6425;50.316;8.114;2023-09-08T07:27:00;7.1;;;5.8;;
12721;SDS011;6425;50.316;8.114;2023-09-08T07:30:00;7.1;;;5.8;;
12721;SDS011;6425;50.316;8.114;2023-09-08T07:33:00;6.2;;;5.6;;
12721;SDS011;6425;50.316;8.114;2023-09-08T07:36:02;6.2;;;5.6;;
12721;SDS011;6425;50.316;8.114;2023-09-08T07:39:00;20.3;;;18.6;;
12721;SDS011;6425;50.316;8.114;2023-09-08T07:42:00;100;;;94.7;;
12721;SDS011;6425;50.316;8.114;2023-09-08T07:45:00;100;;;94.7;;
12721;SDS011;6425;50.316;8.114;2023-09-08T07:48:00;152.5;;;144.8;;
12721;SDS011;6425;50.316;8.114;2023-09-08T07:51:00;152.5;;;144.8;;
12721;SDS011;6425;50.316;8.114;2023-09-08T07:54:00;159.8;;;151.8;;
12721;SDS011;6425;50.316;8.114;2023-09-08T07:57:00;170.5;;;161.8;;
12721;SDS011;6425;50.316;8.114;2023-09-08T08:00:00;170.5;;;161.8;;
12721;SDS011;6425;50.316;8.114;2023-09-08T08:03:00;137.6;;;130.2;;
12721;SDS011;6425;50.316;8.114;2023-09-08T08:06:00;193.8;;;183.4;;
12721;SDS011;6425;50.316;8.114;2023-09-08T08:09:00;250;;;236.7;;
12721;SDS011;6425;50.316;8.114;2023-09-08T08:12:00;302.6;;;287.3;;
12721;SDS011;6425;50.316;8.114;2023-09-08T08:15:00;302.6;;;287.3;;
12721;SDS011;6425;50.316;8.114;2023-09-08T08:18:00;341.4;;;324.5;;
12721;SDS011;6425;50.316;8.114;2023-09-08T08:21:00;330.3;;;313.9;;
12721;SDS011;6425;50.316;8.114;2023-09-08T08:24:00;326.7;;;310.4;;
12721;SDS011;6425;50.316;8.114;2023-09-08T08:27:00;332.3;;;316;;
12721;SDS011;6425;50.316;8.114;2023-09-08T08:30:00;332.3;;;316;;
12721;SDS011;6425;50.316;8.114;2023-09-08T08:33:00;307.3;;;291.6;;
12721;SDS011;6425;50.316;8.114;2023-09-08T08:36:00;332.6;;;315.9;;
12721;SDS011;6425;50.316;8.114;2023-09-08T08:39:00;332.6;;;315.9;;
12721;SDS011;6425;50.316;8.114;2023-09-08T08:42:05;303.2;;;287.8;;
12721;SDS011;6425;50.316;8.114;2023-09-08T08:45:00;303.2;;;287.8;;
12721;SDS011;6425;50.316;8.114;2023-09-08T08:48:00;333.7;;;316.8;;
12721;SDS011;6425;50.316;8.114;2023-09-08T08:51:00;347.7;;;330.2;;
12721;SDS011;6425;50.316;8.114;2023-09-08T08:54:00;347.7;;;330.2;;
12721;SDS011;6425;50.316;8.114;2023-09-08T08:57:00;379.3;;;359.5;;
12721;SDS011;6425;50.316;8.114;2023-09-08T09:00:00;379.3;;;359.5;;
12721;SDS011;6425;50.316;8.114;2023-09-08T09:03:00;337.6;;;320;;
12721;SDS011;6425;50.316;8.114;2023-09-08T09:06:00;283.6;;;268.6;;
12721;SDS011;6425;50.316;8.114;2023-09-08T09:09:00;283.6;;;268.6;;
12721;SDS011;6425;50.316;8.114;2023-09-08T09:12:00;294.7;;;278.8;;
12721;SDS011;6425;50.316;8.114;2023-09-08T09:15:00;294.7;;;278.8;;
12721;SDS011;6425;50.316;8.114;2023-09-08T09:18:03;291.2;;;276;;
12721;SDS011;6425;50.316;8.114;2023-09-08T09:21:00;299.6;;;283.8;;
12721;SDS011;6425;50.316;8.114;2023-09-08T09:24:00;299.6;;;283.8;;
12721;SDS011;6425;50.316;8.114;2023-09-08T09:27:00;258.7;;;245.1;;
12721;SDS011;6425;50.316;8.114;2023-09-08T09:30:00;258.7;;;245.1;;
12721;SDS011;6425;50.316;8.114;2023-09-08T09:33:00;272.6;;;258.9;;
12721;SDS011;6425;50.316;8.114;2023-09-08T09:36:00;252.2;;;239.3;;
12721;SDS011;6425;50.316;8.114;2023-09-08T09:39:00;252.2;;;239.3;;
12721;SDS011;6425;50.316;8.114;2023-09-08T09:42:00;275;;;260.8;;
12721;SDS011;6425;50.316;8.114;2023-09-08T09:45:00;275;;;260.8;;
12721;SDS011;6425;50.316;8.114;2023-09-08T09:48:00;269.8;;;255.8;;
12721;SDS011;6425;50.316;8.114;2023-09-08T09:51:00;276.6;;;261.9;;
12721;SDS011;6425;50.316;8.114;2023-09-08T09:54:00;276.6;;;261.9;;
12721;SDS011;6425;50.316;8.114;2023-09-08T09:57:00;262.3;;;248.6;;
12721;SDS011;6425;50.316;8.114;2023-09-08T10:00:00;262.3;;;248.6;;
12721;SDS011;6425;50.316;8.114;2023-09-08T10:03:00;296.6;;;280.7;;
12721;SDS011;6425;50.316;8.114;2023-09-08T10:06:00;267.5;;;252.8;;
12721;SDS011;6425;50.316;8.114;2023-09-08T10:09:00;267.5;;;252.8;;
12721;SDS011;6425;50.316;8.114;2023-09-08T10:12:01;284.4;;;268.8;;
12721;SDS011;6425;50.316;8.114;2023-09-08T10:15:00;284.4;;;268.8;;
12721;SDS011;6425;50.316;8.114;2023-09-08T10:18:00;341.4;;;322;;
12721;SDS011;6425;50.316;8.114;2023-09-08T10:21:00;325.3;;;305.3;;
12721;SDS011;6425;50.316;8.114;2023-09-08T10:24:02;325.3;;;305.3;;
12721;SDS011;6425;50.316;8.114;2023-09-08T10:27:00;346.8;;;326.4;;
12721;SDS011;6425;50.316;8.114;2023-09-08T10:30:00;346.8;;;326.4;;
12721;SDS011;6425;50.316;8.114;2023-09-08T10:33:00;275.8;;;259.1;;
12721;SDS011;6425;50.316;8.114;2023-09-08T10:36:00;276.3;;;261;;
12721;SDS011;6425;50.316;8.114;2023-09-08T10:39:22;276.3;;;261;;
12721;SDS011;6425;50.316;8.114;2023-09-08T10:42:31;577.5;;;537.2;;
12721;SDS011;6425;50.316;8.114;2023-09-08T10:45:01;577.5;;;537.2;;
12721;SDS011;6425;50.316;8.114;2023-09-08T10:48:00;350.7;;;328.3;;
12721;SDS011;6425;50.316;8.114;2023-09-08T10:51:00;969.1;;;890.4;;
12721;SDS011;6425;50.316;8.114;2023-09-08T10:54:00;969.1;;;890.4;;
12721;SDS011;6425;50.316;8.114;2023-09-08T10:57:00;997.9;;;916.5;;
12721;SDS011;6425;50.316;8.114;2023-09-08T11:00:00;997.9;;;916.5;;
12721;SDS011;6425;50.316;8.114;2023-09-08T11:03:00;615.7;;;570.4;;
12721;SDS011;6425;50.316;8.114;2023-09-08T11:06:00;219.6;;;206.1;;
12721;SDS011;6425;50.316;8.114;2023-09-08T11:09:05;219.6;;;206.1;;
12721;SDS011;6425;50.316;8.114;2023-09-08T11:12:00;665.5;;;613.5;;
12721;SDS011;6425;50.316;8.114;2023-09-08T11:15:01;665.5;;;613.5;;
12721;SDS011;6425;50.316;8.114;2023-09-08T11:18:04;337.8;;;316.6;;
12721;SDS011;6425;50.316;8.114;2023-09-08T11:21:00;173.7;;;163.5;;
12721;SDS011;6425;50.316;8.114;2023-09-08T11:24:00;173.7;;;163.5;;
12721;SDS011;6425;50.316;8.114;2023-09-08T11:27:00;196.1;;;184.1;;
12721;SDS011;6425;50.316;8.114;2023-09-08T11:30:00;196.1;;;184.1;;
12721;SDS011;6425;50.316;8.114;2023-09-08T11:33:00;128.8;;;120.9;;
12721;SDS011;6425;50.316;8.114;2023-09-08T11:36:00;173.9;;;164.6;;
12721;SDS011;6425;50.316;8.114;2023-09-08T11:39:00;173.9;;;164.6;;
12721;SDS011;6425;50.316;8.114;2023-09-08T11:42:00;290.1;;;275.2;;
12721;SDS011;6425;50.316;8.114;2023-09-08T11:45:00;290.1;;;275.2;;
12721;SDS011;6425;50.316;8.114;2023-09-08T11:48:00;297.6;;;282.4;;
12721;SDS011;6425;50.316;8.114;2023-09-08T11:51:00;230.1;;;218;;
12721;SDS011;6425;50.316;8.114;2023-09-08T11:54:00;230.1;;;218;;
12721;SDS011;6425;50.316;8.114;2023-09-08T11:57:00;166.7;;;157.5;;
12721;SDS011;6425;50.316;8.114;2023-09-08T12:00:00;166.7;;;157.5;;
12721;SDS011;6425;50.316;8.114;2023-09-08T12:03:09;176.4;;;166.6;;
12721;SDS011;6425;50.316;8.114;2023-09-08T12:06:00;191.7;;;181;;
12721;SDS011;6425;50.316;8.114;2023-09-08T12:09:00;191.7;;;181;;
12721;SDS011;6425;50.316;8.114;2023-09-08T12:12:00;183;;;172.9;;
12721;SDS011;6425;50.316;8.114;2023-09-08T12:15:00;183;;;172.9;;
12721;SDS011;6425;50.316;8.114;2023-09-08T12:18:00;176.3;;;166.4;;
12721;SDS011;6425;50.316;8.114;2023-09-08T12:21:03;187.3;;;176.9;;
12721;SDS011;6425;50.316;8.114;2023-09-08T12:24:00;187.3;;;176.9;;
12721;SDS011;6425;50.316;8.114;2023-09-08T12:27:01;202.9;;;191.6;;
12721;SDS011;6425;50.316;8.114;2023-09-08T12:30:00;202.9;;;191.6;;
12721;SDS011;6425;50.316;8.114;2023-09-08T12:33:00;235.6;;;222.1;;
12721;SDS011;6425;50.316;8.114;2023-09-08T12:36:06;182.1;;;171.9;;
12721;SDS011;6425;50.316;8.114;2023-09-08T12:39:00;182.1;;;171.9;;
12721;SDS011;6425;50.316;8.114;2023-09-08T12:42:00;184.9;;;174.9;;
12721;SDS011;6425;50.316;8.114;2023-09-08T12:45:00;184.9;;;174.9;;
12721;SDS011;6425;50.316;8.114;2023-09-08T12:48:00;174;;;164.3;;
12721;SDS011;6425;50.316;8.114;2023-09-08T12:51:00;192.4;;;182;;
12721;SDS011;6425;50.316;8.114;2023-09-08T12:54:00;192.4;;;182;;
12721;SDS011;6425;50.316;8.114;2023-09-08T12:57:00;182.5;;;172.5;;
12721;SDS011;6425;50.316;8.114;2023-09-08T13:00:00;182.5;;;172.5;;
12721;SDS011;6425;50.316;8.114;2023-09-08T13:03:00;178.1;;;168.3;;
12721;SDS011;6425;50.316;8.114;2023-09-08T13:06:00;171.8;;;162.4;;
12721;SDS011;6425;50.316;8.114;2023-09-08T13:09:00;171.8;;;162.4;;
12721;SDS011;6425;50.316;8.114;2023-09-08T13:12:00;175.9;;;166.4;;
12721;SDS011;6425;50.316;8.114;2023-09-08T13:15:00;175.9;;;166.4;;
12721;SDS011;6425;50.316;8.114;2023-09-08T13:18:00;169.4;;;160;;
12721;SDS011;6425;50.316;8.114;2023-09-08T13:21:00;176.6;;;167;;
12721;SDS011;6425;50.316;8.114;2023-09-08T13:24:00;176.6;;;167;;
12721;SDS011;6425;50.316;8.114;2023-09-08T13:27:00;180.4;;;170.6;;
12721;SDS011;6425;50.316;8.114;2023-09-08T13:30:07;180.4;;;170.6;;
12721;SDS011;6425;50.316;8.114;2023-09-08T13:33:00;168.1;;;158.9;;
12721;SDS011;6425;50.316;8.114;2023-09-08T13:36:00;174.5;;;164.6;;
12721;SDS011;6425;50.316;8.114;2023-09-08T13:39:00;174.5;;;164.6;;
12721;SDS011;6425;50.316;8.114;2023-09-08T13:42:00;149.7;;;141.4;;
12721;SDS011;6425;50.316;8.114;2023-09-08T13:45:00;149.7;;;141.4;;
12721;SDS011;6425;50.316;8.114;2023-09-08T13:48:00;257.1;;;243.7;;
12721;SDS011;6425;50.316;8.114;2023-09-08T13:51:00;218.1;;;206.6;;
12721;SDS011;6425;50.316;8.114;2023-09-08T13:54:00;218.1;;;206.6;;
12721;SDS011;6425;50.316;8.114;2023-09-08T13:57:00;220.2;;;208.8;;
12721;SDS011;6425;50.316;8.114;2023-09-08T14:00:00;220.2;;;208.8;;
12721;SDS011;6425;50.316;8.114;2023-09-08T14:03:00;206.6;;;195.6;;
12721;SDS011;6425;50.316;8.114;2023-09-08T14:06:00;211.7;;;200.9;;
12721;SDS011;6425;50.316;8.114;2023-09-08T14:09:00;211.7;;;200.9;;
12721;SDS011;6425;50.316;8.114;2023-09-08T14:12:00;184.7;;;175.1;;
12721;SDS011;6425;50.316;8.114;2023-09-08T14:15:00;184.7;;;175.1;;
12721;SDS011;6425;50.316;8.114;2023-09-08T14:18:00;172.4;;;163.4;;
12721;SDS011;6425;50.316;8.114;2023-09-08T14:21:00;195.3;;;185.2;;
12721;SDS011;6425;50.316;8.114;2023-09-08T14:24:00;195.3;;;185.2;;
12721;SDS011;6425;50.316;8.114;2023-09-08T14:27:00;209.8;;;199.1;;
12721;SDS011;6425;50.316;8.114;2023-09-08T14:30:00;209.8;;;199.1;;
12721;SDS011;6425;50.316;8.114;2023-09-08T14:33:00;197.1;;;187.1;;
12721;SDS011;6425;50.316;8.114;2023-09-08T14:36:00;198.8;;;188.7;;
12721;SDS011;6425;50.316;8.114;2023-09-08T14:39:00;198.8;;;188.7;;
12721;SDS011;6425;50.316;8.114;2023-09-08T14:42:00;181.2;;;172;;
12721;SDS011;6425;50.316;8.114;2023-09-08T14:45:00;181.2;;;172;;
12721;SDS011;6425;50.316;8.114;2023-09-08T14:48:00;164;;;155.6;;
12721;SDS011;6425;50.316;8.114;2023-09-08T14:51:00;169.4;;;160.7;;
12721;SDS011;6425;50.316;8.114;2023-09-08T14:54:00;169.4;;;160.7;;
12721;SDS011;6425;50.316;8.114;2023-09-08T14:57:00;180.5;;;171.2;;
12721;SDS011;6425;50.316;8.114;2023-09-08T15:00:00;180.5;;;171.2;;
12721;SDS011;6425;50.316;8.114;2023-09-08T15:03:00;165.6;;;157.1;;
12721;SDS011;6425;50.316;8.114;2023-09-08T15:06:00;168.5;;;159.7;;
12721;SDS011;6425;50.316;8.114;2023-09-08T15:09:00;168.5;;;159.7;;
12721;SDS011;6425;50.316;8.114;2023-09-08T15:12:00;168.3;;;159.6;;
12721;SDS011;6425;50.316;8.114;2023-09-08T15:15:00;168.3;;;159.6;;
12721;SDS011;6425;50.316;8.114;2023-09-08T15:18:00;168.2;;;159.2;;
12721;SDS011;6425;50.316;8.114;2023-09-08T15:21:00;147.8;;;139.8;;
12721;SDS011;6425;50.316;8.114;2023-09-08T15:24:00;147.8;;;139.8;;
12721;SDS011;6425;50.316;8.114;2023-09-08T15:27:00;140.2;;;132.8;;
12721;SDS011;6425;50.316;8.114;2023-09-08T15:30:00;140.2;;;132.8;;
12721;SDS011;6425;50.316;8.114;2023-09-08T15:33:01;138.3;;;131.1;;
12721;SDS011;6425;50.316;8.114;2023-09-08T15:36:00;164.6;;;156.2;;
12721;SDS011;6425;50.316;8.114;2023-09-08T15:39:00;164.6;;;156.2;;
12721;SDS011;6425;50.316;8.114;2023-09-08T15:42:00;130.4;;;123.6;;
12721;SDS011;6425;50.316;8.114;2023-09-08T15:45:00;130.4;;;123.6;;
12721;SDS011;6425;50.316;8.114;2023-09-08T15:48:00;98.3;;;93.2;;
12721;SDS011;6425;50.316;8.114;2023-09-08T15:51:00;105;;;99.5;;
12721;SDS011;6425;50.316;8.114;2023-09-08T15:54:00;105;;;99.5;;
12721;SDS011;6425;50.316;8.114;2023-09-08T15:57:00;131.1;;;123.4;;
12721;SDS011;6425;50.316;8.114;2023-09-08T16:00:00;131.1;;;123.4;;
12721;SDS011;6425;50.316;8.114;2023-09-08T16:03:00;196.7;;;184.4;;
12721;SDS011;6425;50.316;8.114;2023-09-08T16:06:00;165.8;;;155.5;;
12721;SDS011;6425;50.316;8.114;2023-09-08T16:09:00;165.8;;;155.5;;
12721;SDS011;6425;50.316;8.114;2023-09-08T16:12:00;186.3;;;175;;
12721;SDS011;6425;50.316;8.114;2023-09-08T16:15:00;186.3;;;175;;
12721;SDS011;6425;50.316;8.114;2023-09-08T16:18:00;167.9;;;157.6;;
12721;SDS011;6425;50.316;8.114;2023-09-08T16:21:00;213.4;;;199.9;;
12721;SDS011;6425;50.316;8.114;2023-09-08T16:24:00;213.4;;;199.9;;
12721;SDS011;6425;50.316;8.114;2023-09-08T16:27:00;167.8;;;157.4;;
12721;SDS011;6425;50.316;8.114;2023-09-08T16:30:00;167.8;;;157.4;;
12721;SDS011;6425;50.316;8.114;2023-09-08T16:33:00;176.2;;;165.4;;
12721;SDS011;6425;50.316;8.114;2023-09-08T16:36:00;181.8;;;170.5;;
12721;SDS011;6425;50.316;8.114;2023-09-08T16:39:00;181.8;;;170.5;;
12721;SDS011;6425;50.316;8.114;2023-09-08T16:42:00;178.1;;;167.2;;
12721;SDS011;6425;50.316;8.114;2023-09-08T16:45:00;178.1;;;167.2;;
12721;SDS011;6425;50.316;8.114;2023-09-08T16:48:00;188.6;;;177.4;;
12721;SDS011;6425;50.316;8.114;2023-09-08T16:51:00;202.2;;;190.1;;
12721;SDS011;6425;50.316;8.114;2023-09-08T16:54:00;202.2;;;190.1;;
12721;SDS011;6425;50.316;8.114;2023-09-08T16:57:00;213.9;;;201.5;;
12721;SDS011;6425;50.316;8.114;2023-09-08T17:00:00;213.9;;;201.5;;
12721;SDS011;6425;50.316;8.114;2023-09-08T17:03:00;245.8;;;231.2;;
12721;SDS011;6425;50.316;8.114;2023-09-08T17:06:00;373.1;;;350.7;;
12721;SDS011;6425;50.316;8.114;2023-09-08T17:09:00;373.1;;;350.7;;
12721;SDS011;6425;50.316;8.114;2023-09-08T17:12:00;430.8;;;405.1;;
12721;SDS011;6425;50.316;8.114;2023-09-08T17:15:00;430.8;;;405.1;;
12721;SDS011;6425;50.316;8.114;2023-09-08T17:18:00;435.9;;;409.9;;
12721;SDS011;6425;50.316;8.114;2023-09-08T17:21:00;439.8;;;414.1;;
12721;SDS011;6425;50.316;8.114;2023-09-08T17:24:00;439.8;;;414.1;;
12721;SDS011;6425;50.316;8.114;2023-09-08T17:27:00;478.2;;;449.9;;
12721;SDS011;6425;50.316;8.114;2023-09-08T17:30:00;478.2;;;449.9;;
12721;SDS011;6425;50.316;8.114;2023-09-08T17:33:00;469;;;440.9;;
12721;SDS011;6425;50.316;8.114;2023-09-08T17:36:00;474.9;;;445.8;;
12721;SDS011;6425;50.316;8.114;2023-09-08T17:39:00;474.9;;;445.8;;
12721;SDS011;6425;50.316;8.114;2023-09-08T17:42:00;393.7;;;369.9;;
12721;SDS011;6425;50.316;8.114;2023-09-08T17:45:00;393.7;;;369.9;;
12721;SDS011;6425;50.316;8.114;2023-09-08T17:48:00;440.3;;;412.6;;
12721;SDS011;6425;50.316;8.114;2023-09-08T17:51:00;462.4;;;433.2;;
12721;SDS011;6425;50.316;8.114;2023-09-08T17:54:00;462.4;;;433.2;;
12721;SDS011;6425;50.316;8.114;2023-09-08T17:57:00;477.9;;;448.2;;
12721;SDS011;6425;50.316;8.114;2023-09-08T18:00:00;477.9;;;448.2;;
12721;SDS011;6425;50.316;8.114;2023-09-08T18:03:00;470.6;;;442.8;;
12721;SDS011;6425;50.316;8.114;2023-09-08T18:06:00;415.5;;;391.1;;
12721;SDS011;6425;50.316;8.114;2023-09-08T18:09:00;415.5;;;391.1;;
12721;SDS011;6425;50.316;8.114;2023-09-08T18:12:00;412.2;;;388.7;;
12721;SDS011;6425;50.316;8.114;2023-09-08T18:15:00;412.2;;;388.7;;